sensor_id;sensor_type;location;lat;lon;timestamp;pressure;altitude;pressure_sealevel;temperature;humidity
66703;BME280;60933;46.398;-63.798;2023-12-28T00:00:44;101964.19;;;-0.25;80.64
66703;BME280;60933;46.398;-63.798;2023-12-28T00:03:13;101960.72;;;-0.27;80.87
66703;BME280;60933;46.398;-63.798;2023-12-28T00:05:41;101970.13;;;-0.24;80.70
66703;BME280;60933;46.398;-63.798;2023-12-28T00:08:09;101961.53;;;-0.28;81.15
66703;BME280;60933;46.398;-63.798;2023-12-28T00:10:40;101968.38;;;-0.25;81.13
66703;BME280;60933;46.398;-63.798;2023-12-28T00:13:08;101946.88;;;-0.35;80.98
66703;BME280;60933;46.398;-63.798;2023-12-28T00:15:36;101956.34;;;-0.31;81.31
66703;BME280;60933;46.398;-63.798;2023-12-28T00:18:05;101942.03;;;-0.29;81.03
66703;BME280;60933;46.398;-63.798;2023-12-28T00:20:33;101942.81;;;-0.30;81.49
66703;BME280;60933;46.398;-63.798;2023-12-28T00:23:05;101951.38;;;-0.28;81.30
66703;BME280;60933;46.398;-63.798;2023-12-28T00:25:35;101953.84;;;-0.29;81.64
66703;BME280;60933;46.398;-63.798;2023-12-28T00:28:05;101949.59;;;-0.30;81.32
66703;BME280;60933;46.398;-63.798;2023-12-28T00:30:34;101934.97;;;-0.36;81.92
66703;BME280;60933;46.398;-63.798;2023-12-28T00:33:05;101928.16;;;-0.37;81.71
66703;BME280;60933;46.398;-63.798;2023-12-28T00:35:36;101944.66;;;-0.27;82.09
66703;BME280;60933;46.398;-63.798;2023-12-28T00:38:07;101930.22;;;-0.28;82.26
66703;BME280;60933;46.398;-63.798;2023-12-28T00:40:37;101929.41;;;-0.27;82.52
66703;BME280;60933;46.398;-63.798;2023-12-28T00:43:05;101924.22;;;-0.30;82.66
66703;BME280;60933;46.398;-63.798;2023-12-28T00:45:34;101928.47;;;-0.29;82.22
66703;BME280;60933;46.398;-63.798;2023-12-28T00:48:03;101914.91;;;-0.30;82.83
66703;BME280;60933;46.398;-63.798;2023-12-28T00:50:32;101914.91;;;-0.30;82.53
66703;BME280;60933;46.398;-63.798;2023-12-28T00:53:01;101917.44;;;-0.30;83.04
66703;BME280;60933;46.398;-63.798;2023-12-28T00:55:29;101912.38;;;-0.30;82.37
66703;BME280;60933;46.398;-63.798;2023-12-28T00:57:57;101908.13;;;-0.31;82.37
66703;BME280;60933;46.398;-63.798;2023-12-28T01:00:26;101911.47;;;-0.32;82.76
66703;BME280;60933;46.398;-63.798;2023-12-28T01:02:54;101902.88;;;-0.36;82.73
66703;BME280;60933;46.398;-63.798;2023-12-28T01:05:23;101903.16;;;-0.28;82.21
66703;BME280;60933;46.398;-63.798;2023-12-28T01:07:53;101913.31;;;-0.28;82.40
66703;BME280;60933;46.398;-63.798;2023-12-28T01:10:22;101896.25;;;-0.32;83.07
66703;BME280;60933;46.398;-63.798;2023-12-28T01:12:50;101910.53;;;-0.34;83.13
66703;BME280;60933;46.398;-63.798;2023-12-28T01:15:19;101900.97;;;-0.41;83.33
66703;BME280;60933;46.398;-63.798;2023-12-28T01:17:48;101910.41;;;-0.37;82.91
66703;BME280;60933;46.398;-63.798;2023-12-28T01:20:17;101909.59;;;-0.36;83.14
66703;BME280;60933;46.398;-63.798;2023-12-28T01:22:48;101895.88;;;-0.41;83.07
66703;BME280;60933;46.398;-63.798;2023-12-28T01:25:18;101890.81;;;-0.41;83.37
66703;BME280;60933;46.398;-63.798;2023-12-28T01:27:46;101895.88;;;-0.41;83.40
66703;BME280;60933;46.398;-63.798;2023-12-28T01:30:14;101892.41;;;-0.43;83.75
66703;BME280;60933;46.398;-63.798;2023-12-28T01:32:43;101881.28;;;-0.47;83.49
66703;BME280;60933;46.398;-63.798;2023-12-28T01:35:12;101891.56;;;-0.44;82.95
66703;BME280;60933;46.398;-63.798;2023-12-28T01:37:40;101890.88;;;-0.40;83.12
66703;BME280;60933;46.398;-63.798;2023-12-28T01:40:09;101884.13;;;-0.39;83.21
66703;BME280;60933;46.398;-63.798;2023-12-28T01:42:41;101875.63;;;-0.40;83.70
66703;BME280;60933;46.398;-63.798;2023-12-28T01:45:16;101868.03;;;-0.40;82.97
66703;BME280;60933;46.398;-63.798;2023-12-28T01:47:44;101865.44;;;-0.41;83.32
66703;BME280;60933;46.398;-63.798;2023-12-28T01:50:14;101862.84;;;-0.43;83.01
66703;BME280;60933;46.398;-63.798;2023-12-28T01:52:42;101852.63;;;-0.44;83.15
66703;BME280;60933;46.398;-63.798;2023-12-28T01:55:14;101845.94;;;-0.42;83.55
66703;BME280;60933;46.398;-63.798;2023-12-28T01:57:45;101834.88;;;-0.44;83.22
66703;BME280;60933;46.398;-63.798;2023-12-28T02:00:14;101837.50;;;-0.43;84.02
66703;BME280;60933;46.398;-63.798;2023-12-28T02:02:44;101832.34;;;-0.44;83.21
66703;BME280;60933;46.398;-63.798;2023-12-28T02:05:13;101840.81;;;-0.44;83.61
66703;BME280;60933;46.398;-63.798;2023-12-28T02:07:42;101842.44;;;-0.46;83.48
66703;BME280;60933;46.398;-63.798;2023-12-28T02:10:10;101840.06;;;-0.41;83.45
66703;BME280;60933;46.398;-63.798;2023-12-28T02:12:43;101843.41;;;-0.42;83.66
66703;BME280;60933;46.398;-63.798;2023-12-28T02:15:16;101845.16;;;-0.41;83.67
66703;BME280;60933;46.398;-63.798;2023-12-28T02:17:59;101841.72;;;-0.42;84.14
66703;BME280;60933;46.398;-63.798;2023-12-28T02:20:32;101848.50;;;-0.42;83.75
66703;BME280;60933;46.398;-63.798;2023-12-28T02:23:02;101834.88;;;-0.44;83.69
66703;BME280;60933;46.398;-63.798;2023-12-28T02:25:32;101822.09;;;-0.47;83.86
66703;BME280;60933;46.398;-63.798;2023-12-28T02:28:00;101823.91;;;-0.43;83.77
66703;BME280;60933;46.398;-63.798;2023-12-28T02:30:29;101815.50;;;-0.42;83.78
66703;BME280;60933;46.398;-63.798;2023-12-28T02:33:19;101818.03;;;-0.42;83.75
66703;BME280;60933;46.398;-63.798;2023-12-28T02:36:02;101815.47;;;-0.44;84.24
66703;BME280;60933;46.398;-63.798;2023-12-28T02:38:36;101808.66;;;-0.45;84.11
66703;BME280;60933;46.398;-63.798;2023-12-28T02:41:05;101816.34;;;-0.42;84.52
66703;BME280;60933;46.398;-63.798;2023-12-28T02:43:34;101824.84;;;-0.41;84.05
66703;BME280;60933;46.398;-63.798;2023-12-28T02:46:03;101829.88;;;-0.43;83.53
66703;BME280;60933;46.398;-63.798;2023-12-28T02:48:31;101819.78;;;-0.41;83.95
66703;BME280;60933;46.398;-63.798;2023-12-28T02:51:00;101818.00;;;-0.44;84.03
66703;BME280;60933;46.398;-63.798;2023-12-28T02:53:28;101809.50;;;-0.44;84.09
66703;BME280;60933;46.398;-63.798;2023-12-28T02:55:56;101816.31;;;-0.43;84.32
66703;BME280;60933;46.398;-63.798;2023-12-28T02:58:24;101816.44;;;-0.40;84.52
66703;BME280;60933;46.398;-63.798;2023-12-28T03:00:52;101814.72;;;-0.41;85.17
66703;BME280;60933;46.398;-63.798;2023-12-28T03:03:21;101812.22;;;-0.40;85.76
66703;BME280;60933;46.398;-63.798;2023-12-28T03:05:49;101803.63;;;-0.43;85.89
66703;BME280;60933;46.398;-63.798;2023-12-28T03:08:18;101810.44;;;-0.42;85.91
66703;BME280;60933;46.398;-63.798;2023-12-28T03:10:46;101815.50;;;-0.42;86.56
66703;BME280;60933;46.398;-63.798;2023-12-28T03:13:14;101811.22;;;-0.43;86.37
66703;BME280;60933;46.398;-63.798;2023-12-28T03:15:43;101804.44;;;-0.44;86.60
66703;BME280;60933;46.398;-63.798;2023-12-28T03:18:11;101797.56;;;-0.47;86.71
66703;BME280;60933;46.398;-63.798;2023-12-28T03:20:39;101788.31;;;-0.46;86.42
66703;BME280;60933;46.398;-63.798;2023-12-28T03:23:08;101785.78;;;-0.46;86.28
66703;BME280;60933;46.398;-63.798;2023-12-28T03:25:37;101789.97;;;-0.47;87.33
66703;BME280;60933;46.398;-63.798;2023-12-28T03:28:05;101778.09;;;-0.48;87.09
66703;BME280;60933;46.398;-63.798;2023-12-28T03:30:34;101767.84;;;-0.51;86.82
66703;BME280;60933;46.398;-63.798;2023-12-28T03:33:04;101773.81;;;-0.49;86.93
66703;BME280;60933;46.398;-63.798;2023-12-28T03:35:35;101770.28;;;-0.53;87.36
66703;BME280;60933;46.398;-63.798;2023-12-28T03:38:08;101769.50;;;-0.52;86.77
66703;BME280;60933;46.398;-63.798;2023-12-28T03:40:36;101769.66;;;-0.47;86.93
66703;BME280;60933;46.398;-63.798;2023-12-28T03:43:04;101774.69;;;-0.49;86.94
66703;BME280;60933;46.398;-63.798;2023-12-28T03:45:32;101772.16;;;-0.49;87.15
66703;BME280;60933;46.398;-63.798;2023-12-28T03:48:01;101769.63;;;-0.49;86.94
66703;BME280;60933;46.398;-63.798;2023-12-28T03:50:30;101761.13;;;-0.49;87.18
66703;BME280;60933;46.398;-63.798;2023-12-28T03:52:58;101752.53;;;-0.53;87.22
66703;BME280;60933;46.398;-63.798;2023-12-28T03:55:35;101753.47;;;-0.51;87.15
66703;BME280;60933;46.398;-63.798;2023-12-28T03:58:04;101764.50;;;-0.50;87.33
66703;BME280;60933;46.398;-63.798;2023-12-28T04:00:32;101764.41;;;-0.52;87.33
66703;BME280;60933;46.398;-63.798;2023-12-28T04:03:01;101756.75;;;-0.53;87.07
66703;BME280;60933;46.398;-63.798;2023-12-28T04:05:29;101751.81;;;-0.50;87.18
66703;BME280;60933;46.398;-63.798;2023-12-28T04:07:57;101747.53;;;-0.51;87.42
66703;BME280;60933;46.398;-63.798;2023-12-28T04:10:31;101742.41;;;-0.53;87.91
66703;BME280;60933;46.398;-63.798;2023-12-28T04:13:00;101740.63;;;-0.55;87.81
66703;BME280;60933;46.398;-63.798;2023-12-28T04:15:28;101751.66;;;-0.55;87.75
66703;BME280;60933;46.398;-63.798;2023-12-28T04:17:57;101739.84;;;-0.53;87.51
66703;BME280;60933;46.398;-63.798;2023-12-28T04:20:26;101730.47;;;-0.55;87.64
66703;BME280;60933;46.398;-63.798;2023-12-28T04:22:54;101725.41;;;-0.55;87.23
66703;BME280;60933;46.398;-63.798;2023-12-28T04:25:22;101725.47;;;-0.54;87.91
66703;BME280;60933;46.398;-63.798;2023-12-28T04:27:52;101722.81;;;-0.57;87.85
66703;BME280;60933;46.398;-63.798;2023-12-28T04:30:23;101728.00;;;-0.54;87.90
66703;BME280;60933;46.398;-63.798;2023-12-28T04:32:52;101719.53;;;-0.54;87.79
66703;BME280;60933;46.398;-63.798;2023-12-28T04:35:32;101723.78;;;-0.53;87.20
66703;BME280;60933;46.398;-63.798;2023-12-28T04:38:21;101722.94;;;-0.54;87.68
66703;BME280;60933;46.398;-63.798;2023-12-28T04:40:49;101720.41;;;-0.54;88.63
66703;BME280;60933;46.398;-63.798;2023-12-28T04:43:18;101716.94;;;-0.56;89.57
66703;BME280;60933;46.398;-63.798;2023-12-28T04:45:46;101717.69;;;-0.58;89.07
66703;BME280;60933;46.398;-63.798;2023-12-28T04:48:14;101723.00;;;-0.52;88.22
66703;BME280;60933;46.398;-63.798;2023-12-28T04:50:43;101726.19;;;-0.56;88.34
66703;BME280;60933;46.398;-63.798;2023-12-28T04:53:14;101730.56;;;-0.54;88.75
66703;BME280;60933;46.398;-63.798;2023-12-28T04:55:52;101724.63;;;-0.53;88.78
66703;BME280;60933;46.398;-63.798;2023-12-28T04:58:24;101717.88;;;-0.54;88.54
66703;BME280;60933;46.398;-63.798;2023-12-28T05:00:54;101717.88;;;-0.54;88.10
66703;BME280;60933;46.398;-63.798;2023-12-28T05:03:22;101708.44;;;-0.56;88.41
66703;BME280;60933;46.398;-63.798;2023-12-28T05:05:51;101696.56;;;-0.57;88.63
66703;BME280;60933;46.398;-63.798;2023-12-28T05:08:19;101694.88;;;-0.58;89.06
66703;BME280;60933;46.398;-63.798;2023-12-28T05:10:47;101685.53;;;-0.59;88.75
66703;BME280;60933;46.398;-63.798;2023-12-28T05:13:15;101691.44;;;-0.59;88.50
66703;BME280;60933;46.398;-63.798;2023-12-28T05:15:44;101686.44;;;-0.57;88.51
66703;BME280;60933;46.398;-63.798;2023-12-28T05:18:12;101680.34;;;-0.62;88.52
66703;BME280;60933;46.398;-63.798;2023-12-28T05:20:41;101678.78;;;-0.59;88.95
66703;BME280;60933;46.398;-63.798;2023-12-28T05:23:09;101678.78;;;-0.59;88.27
66703;BME280;60933;46.398;-63.798;2023-12-28T05:25:37;101680.50;;;-0.58;88.50
66703;BME280;60933;46.398;-63.798;2023-12-28T05:28:05;101680.50;;;-0.58;88.46
66703;BME280;60933;46.398;-63.798;2023-12-28T05:30:34;101686.38;;;-0.59;88.77
66703;BME280;60933;46.398;-63.798;2023-12-28T05:33:03;101691.50;;;-0.57;88.49
66703;BME280;60933;46.398;-63.798;2023-12-28T05:35:32;101695.75;;;-0.56;89.17
66703;BME280;60933;46.398;-63.798;2023-12-28T05:38:00;101692.38;;;-0.57;89.42
66703;BME280;60933;46.398;-63.798;2023-12-28T05:40:28;101687.19;;;-0.60;89.72
66703;BME280;60933;46.398;-63.798;2023-12-28T05:42:56;101690.66;;;-0.58;89.14
66703;BME280;60933;46.398;-63.798;2023-12-28T05:45:25;101677.91;;;-0.59;88.99
66703;BME280;60933;46.398;-63.798;2023-12-28T05:47:53;101683.97;;;-0.56;88.78
66703;BME280;60933;46.398;-63.798;2023-12-28T05:50:21;101677.16;;;-0.57;88.84
66703;BME280;60933;46.398;-63.798;2023-12-28T05:52:50;101680.50;;;-0.58;89.06
66703;BME280;60933;46.398;-63.798;2023-12-28T05:55:18;101670.22;;;-0.61;89.97
66703;BME280;60933;46.398;-63.798;2023-12-28T05:57:46;101666.84;;;-0.61;89.47
66703;BME280;60933;46.398;-63.798;2023-12-28T06:00:15;101667.66;;;-0.62;89.62
66703;BME280;60933;46.398;-63.798;2023-12-28T06:02:44;101664.19;;;-0.65;89.67
66703;BME280;60933;46.398;-63.798;2023-12-28T06:05:13;101669.25;;;-0.65;90.24
66703;BME280;60933;46.398;-63.798;2023-12-28T06:07:44;101678.56;;;-0.65;90.45
66703;BME280;60933;46.398;-63.798;2023-12-28T06:10:12;101677.72;;;-0.66;90.79
66703;BME280;60933;46.398;-63.798;2023-12-28T06:12:40;101678.59;;;-0.64;90.15
66703;BME280;60933;46.398;-63.798;2023-12-28T06:15:09;101669.34;;;-0.63;90.32
66703;BME280;60933;46.398;-63.798;2023-12-28T06:17:37;101662.59;;;-0.62;89.99
66703;BME280;60933;46.398;-63.798;2023-12-28T06:20:05;101660.81;;;-0.65;90.29
66703;BME280;60933;46.398;-63.798;2023-12-28T06:22:36;101654.00;;;-0.66;89.92
66703;BME280;60933;46.398;-63.798;2023-12-28T06:25:05;101658.16;;;-0.68;89.96
66703;BME280;60933;46.398;-63.798;2023-12-28T06:27:33;101661.59;;;-0.66;89.99
66703;BME280;60933;46.398;-63.798;2023-12-28T06:30:01;101658.31;;;-0.64;89.59
66703;BME280;60933;46.398;-63.798;2023-12-28T06:32:30;101646.34;;;-0.68;89.66
66703;BME280;60933;46.398;-63.798;2023-12-28T06:34:58;101659.88;;;-0.67;90.03
66703;BME280;60933;46.398;-63.798;2023-12-28T06:37:26;101666.69;;;-0.66;90.76
66703;BME280;60933;46.398;-63.798;2023-12-28T06:39:54;101662.41;;;-0.67;90.21
66703;BME280;60933;46.398;-63.798;2023-12-28T06:42:22;101679.47;;;-0.63;89.84
66703;BME280;60933;46.398;-63.798;2023-12-28T06:44:51;101670.16;;;-0.64;89.32
66703;BME280;60933;46.398;-63.798;2023-12-28T06:47:19;101683.63;;;-0.65;89.35
66703;BME280;60933;46.398;-63.798;2023-12-28T06:49:47;101679.41;;;-0.65;90.01
66703;BME280;60933;46.398;-63.798;2023-12-28T06:52:15;101671.75;;;-0.66;90.28
66703;BME280;60933;46.398;-63.798;2023-12-28T06:54:44;101675.97;;;-0.67;89.53
66703;BME280;60933;46.398;-63.798;2023-12-28T06:57:12;101685.34;;;-0.64;89.45
66703;BME280;60933;46.398;-63.798;2023-12-28T06:59:40;101679.25;;;-0.69;89.30
66703;BME280;60933;46.398;-63.798;2023-12-28T07:02:08;101691.00;;;-0.71;90.03
66703;BME280;60933;46.398;-63.798;2023-12-28T07:04:36;101703.69;;;-0.71;89.90
66703;BME280;60933;46.398;-63.798;2023-12-28T07:07:04;101692.63;;;-0.73;89.79
66703;BME280;60933;46.398;-63.798;2023-12-28T07:09:32;101689.16;;;-0.75;89.64
66703;BME280;60933;46.398;-63.798;2023-12-28T07:12:00;101672.13;;;-0.80;89.57
66703;BME280;60933;46.398;-63.798;2023-12-28T07:14:28;101678.78;;;-0.82;89.37
66703;BME280;60933;46.398;-63.798;2023-12-28T07:16:56;101674.69;;;-0.78;89.63
66703;BME280;60933;46.398;-63.798;2023-12-28T07:19:24;101663.59;;;-0.82;89.73
66703;BME280;60933;46.398;-63.798;2023-12-28T07:21:52;101668.59;;;-0.83;89.75
66703;BME280;60933;46.398;-63.798;2023-12-28T07:24:21;101676.25;;;-0.82;89.74
66703;BME280;60933;46.398;-63.798;2023-12-28T07:26:50;101673.72;;;-0.82;90.36
66703;BME280;60933;46.398;-63.798;2023-12-28T07:29:18;101670.22;;;-0.85;89.78
66703;BME280;60933;46.398;-63.798;2023-12-28T07:31:46;101680.53;;;-0.81;89.96
66703;BME280;60933;46.398;-63.798;2023-12-28T07:34:14;101672.78;;;-0.84;89.74
66703;BME280;60933;46.398;-63.798;2023-12-28T07:36:42;101676.38;;;-0.78;90.22
66703;BME280;60933;46.398;-63.798;2023-12-28T07:39:11;101678.03;;;-0.79;89.80
66703;BME280;60933;46.398;-63.798;2023-12-28T07:41:39;101673.84;;;-0.78;89.94
66703;BME280;60933;46.398;-63.798;2023-12-28T07:44:07;101684.03;;;-0.77;90.31
66703;BME280;60933;46.398;-63.798;2023-12-28T07:46:35;101686.63;;;-0.75;90.10
66703;BME280;60933;46.398;-63.798;2023-12-28T07:49:03;101676.38;;;-0.78;90.21
66703;BME280;60933;46.398;-63.798;2023-12-28T07:51:32;101688.25;;;-0.77;90.62
66703;BME280;60933;46.398;-63.798;2023-12-28T07:54:00;101679.81;;;-0.76;91.95
66703;BME280;60933;46.398;-63.798;2023-12-28T07:56:28;101673.09;;;-0.76;92.09
66703;BME280;60933;46.398;-63.798;2023-12-28T07:58:56;101657.72;;;-0.81;91.50
66703;BME280;60933;46.398;-63.798;2023-12-28T08:01:24;101663.63;;;-0.80;91.05
66703;BME280;60933;46.398;-63.798;2023-12-28T08:03:53;101660.25;;;-0.81;90.90
66703;BME280;60933;46.398;-63.798;2023-12-28T08:06:21;101657.72;;;-0.81;90.56
66703;BME280;60933;46.398;-63.798;2023-12-28T08:08:49;101662.78;;;-0.81;90.86
66703;BME280;60933;46.398;-63.798;2023-12-28T08:11:18;101659.31;;;-0.83;90.65
66703;BME280;60933;46.398;-63.798;2023-12-28T08:13:46;101655.06;;;-0.84;90.81
66703;BME280;60933;46.398;-63.798;2023-12-28T08:16:14;101648.38;;;-0.82;90.51
66703;BME280;60933;46.398;-63.798;2023-12-28T08:18:42;101639.03;;;-0.83;90.25
66703;BME280;60933;46.398;-63.798;2023-12-28T08:21:11;101627.16;;;-0.84;90.48
66703;BME280;60933;46.398;-63.798;2023-12-28T08:23:39;101622.84;;;-0.86;89.92
66703;BME280;60933;46.398;-63.798;2023-12-28T08:26:07;101622.03;;;-0.85;89.70
66703;BME280;60933;46.398;-63.798;2023-12-28T08:28:36;101628.81;;;-0.86;90.45
66703;BME280;60933;46.398;-63.798;2023-12-28T08:31:04;101622.81;;;-0.88;89.40
66703;BME280;60933;46.398;-63.798;2023-12-28T08:33:32;101621.03;;;-0.90;89.36
66703;BME280;60933;46.398;-63.798;2023-12-28T08:36:03;101626.84;;;-0.93;89.97
66703;BME280;60933;46.398;-63.798;2023-12-28T08:38:31;101621.63;;;-0.98;89.59
66703;BME280;60933;46.398;-63.798;2023-12-28T08:40:59;101631.75;;;-0.98;90.31
66703;BME280;60933;46.398;-63.798;2023-12-28T08:43:28;101635.88;;;-1.00;90.61
66703;BME280;60933;46.398;-63.798;2023-12-28T08:45:56;101635.03;;;-1.00;91.07
66703;BME280;60933;46.398;-63.798;2023-12-28T08:48:24;101628.25;;;-1.01;91.23
66703;BME280;60933;46.398;-63.798;2023-12-28T08:50:52;101640.91;;;-1.01;92.31
66703;BME280;60933;46.398;-63.798;2023-12-28T08:53:20;101627.19;;;-1.06;91.35
66703;BME280;60933;46.398;-63.798;2023-12-28T08:55:49;101633.94;;;-1.07;92.13
66703;BME280;60933;46.398;-63.798;2023-12-28T08:58:17;101617.94;;;-1.06;92.39
66703;BME280;60933;46.398;-63.798;2023-12-28T09:00:45;101611.88;;;-1.09;92.80
66703;BME280;60933;46.398;-63.798;2023-12-28T09:03:15;101628.06;;;-1.06;93.33
66703;BME280;60933;46.398;-63.798;2023-12-28T09:05:43;101623.81;;;-1.07;94.00
66703;BME280;60933;46.398;-63.798;2023-12-28T09:08:11;101615.03;;;-1.15;93.79
66703;BME280;60933;46.398;-63.798;2023-12-28T09:10:39;101626.28;;;-1.08;95.31
66703;BME280;60933;46.398;-63.798;2023-12-28T09:13:15;101627.25;;;-1.05;95.01
66703;BME280;60933;46.398;-63.798;2023-12-28T09:15:43;101624.66;;;-1.06;94.83
66703;BME280;60933;46.398;-63.798;2023-12-28T09:18:12;101622.94;;;-1.07;94.72
66703;BME280;60933;46.398;-63.798;2023-12-28T09:20:40;101622.03;;;-1.09;95.42
66703;BME280;60933;46.398;-63.798;2023-12-28T09:23:08;101623.75;;;-1.08;94.56
66703;BME280;60933;46.398;-63.798;2023-12-28T09:25:40;101622.03;;;-1.09;95.16
66703;BME280;60933;46.398;-63.798;2023-12-28T09:28:08;101621.09;;;-1.12;94.43
66703;BME280;60933;46.398;-63.798;2023-12-28T09:30:36;101618.56;;;-1.12;94.63
66703;BME280;60933;46.398;-63.798;2023-12-28T09:33:04;101609.22;;;-1.13;93.76
66703;BME280;60933;46.398;-63.798;2023-12-28T09:35:33;101604.88;;;-1.17;94.13
66703;BME280;60933;46.398;-63.798;2023-12-28T09:38:01;101596.22;;;-1.22;93.76
66703;BME280;60933;46.398;-63.798;2023-12-28T09:40:29;101602.03;;;-1.24;93.64
66703;BME280;60933;46.398;-63.798;2023-12-28T09:45:39;101600.81;;;-1.34;93.17
66703;BME280;60933;46.398;-63.798;2023-12-28T09:48:07;101610.81;;;-1.37;93.53
66703;BME280;60933;46.398;-63.798;2023-12-28T09:50:36;101608.94;;;-1.43;93.79
66703;BME280;60933;46.398;-63.798;2023-12-28T09:53:04;101617.16;;;-1.49;93.76
66703;BME280;60933;46.398;-63.798;2023-12-28T09:55:32;101612.78;;;-1.53;93.47
66703;BME280;60933;46.398;-63.798;2023-12-28T09:58:00;101606.72;;;-1.56;93.92
66703;BME280;60933;46.398;-63.798;2023-12-28T10:00:33;101609.09;;;-1.61;93.44
66703;BME280;60933;46.398;-63.798;2023-12-28T10:03:01;101616.38;;;-1.69;92.68
66703;BME280;60933;46.398;-63.798;2023-12-28T10:05:30;101621.25;;;-1.73;93.14
66703;BME280;60933;46.398;-63.798;2023-12-28T10:07:59;101616.00;;;-1.78;93.00
66703;BME280;60933;46.398;-63.798;2023-12-28T10:10:29;101614.09;;;-1.84;93.08
66703;BME280;60933;46.398;-63.798;2023-12-28T10:12:57;101623.19;;;-1.89;92.72
66703;BME280;60933;46.398;-63.798;2023-12-28T10:15:26;101624.66;;;-1.94;92.86
66703;BME280;60933;46.398;-63.798;2023-12-28T10:17:54;101624.41;;;-2.00;92.89
66703;BME280;60933;46.398;-63.798;2023-12-28T10:20:25;101631.69;;;-2.08;92.89
66703;BME280;60933;46.398;-63.798;2023-12-28T10:22:54;101625.38;;;-2.18;93.17
66703;BME280;60933;46.398;-63.798;2023-12-28T10:25:22;101637.88;;;-2.21;94.19
66703;BME280;60933;46.398;-63.798;2023-12-28T10:27:52;101635.25;;;-2.24;93.97
66703;BME280;60933;46.398;-63.798;2023-12-28T10:30:21;101625.72;;;-2.30;94.38
66703;BME280;60933;46.398;-63.798;2023-12-28T10:32:49;101622.88;;;-2.38;94.23
66703;BME280;60933;46.398;-63.798;2023-12-28T10:35:18;101624.34;;;-2.43;94.12
66703;BME280;60933;46.398;-63.798;2023-12-28T10:37:51;101620.50;;;-2.54;93.59
66703;BME280;60933;46.398;-63.798;2023-12-28T10:40:24;101627.00;;;-2.59;93.85
66703;BME280;60933;46.398;-63.798;2023-12-28T10:43:02;101619.09;;;-2.67;93.55
66703;BME280;60933;46.398;-63.798;2023-12-28T10:45:33;101635.66;;;-2.74;93.67
66703;BME280;60933;46.398;-63.798;2023-12-28T10:48:07;101646.56;;;-2.75;94.48
66703;BME280;60933;46.398;-63.798;2023-12-28T10:50:40;101647.28;;;-2.77;94.76
66703;BME280;60933;46.398;-63.798;2023-12-28T10:53:37;101649.56;;;-2.83;94.67
66703;BME280;60933;46.398;-63.798;2023-12-28T10:56:32;101652.59;;;-2.91;94.45
66703;BME280;60933;46.398;-63.798;2023-12-28T11:01:49;101651.84;;;-3.08;94.97
66703;BME280;60933;46.398;-63.798;2023-12-28T11:04:37;101643.09;;;-3.14;95.62
66703;BME280;60933;46.398;-63.798;2023-12-28T11:07:10;101660.00;;;-3.13;95.44
66703;BME280;60933;46.398;-63.798;2023-12-28T11:09:45;101656.41;;;-3.19;95.08
66703;BME280;60933;46.398;-63.798;2023-12-28T11:12:13;101658.78;;;-3.22;95.76
66703;BME280;60933;46.398;-63.798;2023-12-28T11:14:45;101657.78;;;-3.25;96.03
66703;BME280;60933;46.398;-63.798;2023-12-28T11:17:16;101652.44;;;-3.31;95.87
66703;BME280;60933;46.398;-63.798;2023-12-28T11:19:44;101666.72;;;-3.32;95.83
66703;BME280;60933;46.398;-63.798;2023-12-28T11:22:14;101664.69;;;-3.39;95.07
66703;BME280;60933;46.398;-63.798;2023-12-28T11:24:43;101679.63;;;-3.44;95.80
66703;BME280;60933;46.398;-63.798;2023-12-28T11:27:11;101665.63;;;-3.55;95.75
66703;BME280;60933;46.398;-63.798;2023-12-28T11:29:43;101664.84;;;-3.54;95.97
66703;BME280;60933;46.398;-63.798;2023-12-28T11:32:13;101662.81;;;-3.61;95.78
66703;BME280;60933;46.398;-63.798;2023-12-28T11:34:41;101666.69;;;-3.68;95.40
66703;BME280;60933;46.398;-63.798;2023-12-28T11:37:14;101657.59;;;-3.83;95.02
66703;BME280;60933;46.398;-63.798;2023-12-28T11:39:49;101660.91;;;-3.84;95.00
66703;BME280;60933;46.398;-63.798;2023-12-28T11:42:20;101672.44;;;-3.89;94.41
66703;BME280;60933;46.398;-63.798;2023-12-28T11:44:56;101660.22;;;-3.98;94.02
66703;BME280;60933;46.398;-63.798;2023-12-28T11:47:25;101641.31;;;-4.06;94.42
66703;BME280;60933;46.398;-63.798;2023-12-28T11:49:55;101635.34;;;-4.08;95.15
66703;BME280;60933;46.398;-63.798;2023-12-28T11:52:31;101639.28;;;-4.13;96.22
66703;BME280;60933;46.398;-63.798;2023-12-28T11:54:59;101650.81;;;-4.18;95.99
66703;BME280;60933;46.398;-63.798;2023-12-28T11:57:28;101643.88;;;-4.22;96.42
66703;BME280;60933;46.398;-63.798;2023-12-28T12:00:01;101642.94;;;-4.24;96.33
66703;BME280;60933;46.398;-63.798;2023-12-28T12:02:30;101638.63;;;-4.27;96.09
66703;BME280;60933;46.398;-63.798;2023-12-28T12:04:58;101647.75;;;-4.29;95.38
66703;BME280;60933;46.398;-63.798;2023-12-28T12:07:29;101632.25;;;-4.37;95.47
66703;BME280;60933;46.398;-63.798;2023-12-28T12:09:58;101639.94;;;-4.34;94.88
66703;BME280;60933;46.398;-63.798;2023-12-28T12:12:28;101630.50;;;-4.38;94.30
66703;BME280;60933;46.398;-63.798;2023-12-28T12:14:56;101628.91;;;-4.36;93.97
66703;BME280;60933;46.398;-63.798;2023-12-28T12:17:25;101639.81;;;-4.37;93.94
66703;BME280;60933;46.398;-63.798;2023-12-28T12:19:54;101649.91;;;-4.37;93.19
66703;BME280;60933;46.398;-63.798;2023-12-28T12:22:25;101643.44;;;-4.48;92.61
66703;BME280;60933;46.398;-63.798;2023-12-28T12:24:56;101664.84;;;-4.40;93.09
66703;BME280;60933;46.398;-63.798;2023-12-28T12:27:27;101677.28;;;-4.43;94.05
66703;BME280;60933;46.398;-63.798;2023-12-28T12:29:56;101668.88;;;-4.43;93.40
66703;BME280;60933;46.398;-63.798;2023-12-28T12:32:24;101663.59;;;-4.48;92.87
66703;BME280;60933;46.398;-63.798;2023-12-28T12:34:53;101682.19;;;-4.46;92.63
66703;BME280;60933;46.398;-63.798;2023-12-28T12:37:21;101682.97;;;-4.47;92.48
66703;BME280;60933;46.398;-63.798;2023-12-28T12:39:50;101681.31;;;-4.47;92.25
66703;BME280;60933;46.398;-63.798;2023-12-28T12:42:18;101671.06;;;-4.50;92.22
66703;BME280;60933;46.398;-63.798;2023-12-28T12:44:47;101685.72;;;-4.42;94.53
66703;BME280;60933;46.398;-63.798;2023-12-28T12:47:15;101685.19;;;-4.37;95.10